Time;durP1;ratioP1;P1;durP2;ratioP2;P2;SDS_P1;SDS_P2;PMS_P1;PMS_P2;Temp;Humidity;BMP_temperature;BMP_pressure;BME280_temperature;BME280_humidity;BME280_pressure;Samples;Min_cycle;Max_cycle;Signal;HPM_P1;HPM_P2
2021/06/08 00:01:10;;;;;;;22.27;18.83;;;15.40;99.90;;;;;;6265845;22;20259;-79
2021/06/08 00:03:36;;;;;;;19.97;17.83;;;15.40;99.90;;;;;;6266347;22;20172;-79
2021/06/08 00:06:02;;;;;;;21.50;19.20;;;15.30;99.90;;;;;;6265652;22;20190;-76
2021/06/08 00:08:28;;;;;;;22.03;19.23;;;15.30;99.90;;;;;;6266321;22;20189;-77
2021/06/08 00:10:56;;;;;;;19.77;17.67;;;15.30;99.90;;;;;;6263835;22;20200;-79
2021/06/08 00:13:22;;;;;;;18.87;16.83;;;15.30;99.90;;;;;;6265790;22;20184;-77
2021/06/08 00:15:49;;;;;;;20.50;18.30;;;15.20;99.90;;;;;;6266321;22;20749;-78
2021/06/08 00:18:15;;;;;;;20.87;18.63;;;15.20;99.90;;;;;;6267211;22;20183;-78
2021/06/08 00:20:41;;;;;;;22.10;19.53;;;15.20;99.90;;;;;;6266386;22;20165;-79
2021/06/08 00:29:53;;;;;;;17.93;16.03;;;15.20;99.90;;;;;;6267530;22;20160;-82
2021/06/08 00:32:19;;;;;;;23.20;19.27;;;15.10;99.90;;;;;;6266230;22;20161;-77
2021/06/08 00:34:45;;;;;;;20.23;18.10;;;15.10;99.90;;;;;;6265055;22;20195;-76
2021/06/08 00:37:12;;;;;;;23.17;18.03;;;15.10;99.90;;;;;;6265827;22;20172;-76
2021/06/08 00:39:38;;;;;;;27.23;22.23;;;15.10;99.90;;;;;;6266722;22;20172;-76
2021/06/08 00:42:05;;;;;;;19.77;17.60;;;15.10;99.90;;;;;;6264655;22;20172;-79
2021/06/08 00:44:31;;;;;;;22.67;19.33;;;15.10;99.90;;;;;;6264287;22;20184;-81
2021/06/08 00:46:59;;;;;;;22.53;18.77;;;15.10;99.90;;;;;;6265491;22;20173;-82
2021/06/08 00:49:25;;;;;;;22.63;18.80;;;15.10;99.90;;;;;;6265121;22;20176;-77
2021/06/08 00:51:52;;;;;;;21.57;18.67;;;15.10;99.90;;;;;;6265999;22;20583;-77
2021/06/08 00:54:18;;;;;;;20.17;16.80;;;15.00;99.90;;;;;;6265604;22;20220;-77
2021/06/08 00:56:47;;;;;;;22.17;19.03;;;15.00;99.90;;;;;;6264598;22;20207;-78
2021/06/08 00:59:14;;;;;;;22.37;19.90;;;15.00;99.90;;;;;;6265690;22;20176;-82
2021/06/08 01:01:40;;;;;;;20.50;18.13;;;15.00;99.90;;;;;;6265570;22;20168;-82
2021/06/08 01:04:10;;;;;;;23.57;20.10;;;14.90;99.90;;;;;;6265767;22;20246;-82
2021/06/08 01:06:38;;;;;;;26.50;21.33;;;15.00;99.90;;;;;;6266047;22;20662;-80
2021/06/08 01:09:06;;;;;;;23.37;20.23;;;14.90;99.90;;;;;;6266350;22;20808;-77
2021/06/08 01:19:01;;;;;;;21.67;18.93;;;14.80;99.90;;;;;;6087098;22;20257;-79
2021/06/08 01:21:29;;;;;;;20.03;17.93;;;14.80;99.90;;;;;;6275291;22;20191;-82
2021/06/08 01:23:56;;;;;;;24.97;21.60;;;14.80;99.90;;;;;;6264396;22;20168;-80
2021/06/08 01:26:24;;;;;;;20.30;18.07;;;14.70;99.90;;;;;;6266120;22;20177;-78
2021/06/08 01:28:51;;;;;;;20.23;17.97;;;14.70;99.90;;;;;;6266112;22;20173;-80
2021/06/08 01:31:20;;;;;;;20.13;17.93;;;14.70;99.90;;;;;;6264952;22;20172;-79
2021/06/08 01:33:47;;;;;;;22.37;19.80;;;14.70;99.90;;;;;;6264818;22;20192;-76
2021/06/08 01:36:17;;;;;;;25.70;22.30;;;14.60;99.90;;;;;;6265501;22;20176;-77
2021/06/08 01:38:45;;;;;;;30.23;23.87;;;14.60;99.90;;;;;;6264492;22;20176;-77
2021/06/08 01:41:13;;;;;;;25.50;22.20;;;14.60;99.90;;;;;;6264787;22;20481;-77
2021/06/08 01:43:40;;;;;;;24.53;21.90;;;14.60;99.90;;;;;;6266197;22;20172;-77
2021/06/08 01:46:07;;;;;;;26.63;22.00;;;14.60;99.90;;;;;;6263848;22;20234;-77
2021/06/08 01:48:33;;;;;;;22.60;19.53;;;14.60;99.90;;;;;;6265291;22;20181;-76
2021/06/08 01:51:08;;;;;;;23.57;20.87;;;14.50;99.90;;;;;;6264885;22;20232;-76
2021/06/08 01:53:38;;;;;;;25.47;21.57;;;14.50;99.90;;;;;;6265501;22;20156;-77
2021/06/08 01:56:10;;;;;;;22.40;19.17;;;14.50;99.90;;;;;;6265625;22;20172;-77
2021/06/08 01:58:43;;;;;;;22.00;18.97;;;14.40;99.90;;;;;;6265053;22;20169;-78
2021/06/08 02:01:15;;;;;;;25.73;21.70;;;14.40;99.90;;;;;;6265434;22;20165;-77
2021/06/08 02:03:50;;;;;;;24.80;19.53;;;14.40;99.90;;;;;;6265391;22;20171;-77
2021/06/08 02:06:27;;;;;;;21.27;18.90;;;14.40;99.90;;;;;;6265035;22;20423;-77
2021/06/08 02:09:00;;;;;;;23.10;18.50;;;14.40;99.90;;;;;;6264456;22;20164;-77
2021/06/08 02:11:36;;;;;;;22.40;19.30;;;14.40;99.90;;;;;;6264551;22;20204;-76
2021/06/08 02:14:05;;;;;;;21.70;18.93;;;14.30;99.90;;;;;;6264482;22;20199;-76
2021/06/08 02:16:35;;;;;;;19.97;17.80;;;14.30;99.90;;;;;;6264664;22;20184;-76
2021/06/08 02:19:03;;;;;;;17.87;15.97;;;14.30;99.90;;;;;;6264825;22;20169;-76
2021/06/08 02:21:35;;;;;;;21.10;16.77;;;14.20;99.90;;;;;;6263815;22;20180;-76
2021/06/08 02:24:03;;;;;;;16.03;14.40;;;14.20;99.90;;;;;;6265275;22;20160;-76
2021/06/08 02:26:34;;;;;;;19.10;16.20;;;14.20;99.90;;;;;;6264441;22;20176;-76
2021/06/08 02:29:04;;;;;;;19.63;15.93;;;14.10;99.90;;;;;;6264397;22;20157;-76
2021/06/08 02:31:32;;;;;;;18.20;16.27;;;14.10;99.90;;;;;;6265046;22;20179;-76
2021/06/08 02:34:00;;;;;;;17.60;15.60;;;14.10;99.90;;;;;;6263796;22;20188;-76
2021/06/08 02:36:26;;;;;;;17.57;15.67;;;14.00;99.90;;;;;;6264665;22;20169;-77
2021/06/08 02:38:54;;;;;;;19.17;16.67;;;14.00;99.90;;;;;;6265179;22;20260;-80
2021/06/08 02:41:23;;;;;;;19.37;16.67;;;14.00;99.90;;;;;;6263414;22;20173;-78
2021/06/08 02:43:52;;;;;;;17.57;15.33;;;14.00;99.90;;;;;;6265214;22;20448;-78
2021/06/08 02:46:22;;;;;;;18.43;16.03;;;14.00;99.90;;;;;;6265099;22;20203;-77
2021/06/08 02:48:49;;;;;;;18.97;16.57;;;13.90;99.90;;;;;;6264530;22;20169;-77
2021/06/08 02:51:16;;;;;;;17.20;15.10;;;13.90;99.90;;;;;;6264783;22;20168;-77
2021/06/08 02:53:43;;;;;;;15.97;14.27;;;13.90;99.90;;;;;;6264852;22;20233;-76
2021/06/08 02:56:09;;;;;;;16.20;14.40;;;13.90;99.90;;;;;;6264825;22;20177;-76
2021/06/08 02:58:37;;;;;;;22.07;18.03;;;13.90;99.90;;;;;;6265437;22;20288;-76
2021/06/08 03:01:06;;;;;;;16.97;15.17;;;13.90;99.90;;;;;;6265268;22;20230;-76
2021/06/08 03:03:36;;;;;;;20.67;17.83;;;13.80;99.90;;;;;;6264408;22;20173;-76
2021/06/08 03:06:07;;;;;;;18.47;15.77;;;13.80;99.90;;;;;;6264892;22;20173;-76
2021/06/08 03:08:36;;;;;;;17.73;15.07;;;13.80;99.90;;;;;;6265162;22;20878;-79
2021/06/08 03:11:06;;;;;;;17.10;14.87;;;13.80;99.90;;;;;;6263893;22;20208;-80
2021/06/08 03:13:34;;;;;;;17.63;15.73;;;13.80;99.90;;;;;;6265227;22;20254;-81
2021/06/08 03:16:02;;;;;;;16.43;14.13;;;13.70;99.90;;;;;;6263987;22;20218;-80
2021/06/08 03:18:31;;;;;;;17.33;15.10;;;13.70;99.90;;;;;;6265570;22;20173;-78
2021/06/08 03:21:01;;;;;;;16.30;14.30;;;13.70;99.90;;;;;;6265902;22;20176;-77
2021/06/08 03:23:30;;;;;;;17.00;15.07;;;13.70;99.90;;;;;;6265039;22;20255;-78
2021/06/08 03:26:00;;;;;;;15.47;13.83;;;13.70;99.90;;;;;;6264575;22;21025;-78
2021/06/08 03:28:28;;;;;;;18.13;16.23;;;13.70;99.90;;;;;;6265752;22;20173;-80
2021/06/08 03:30:55;;;;;;;15.13;13.67;;;13.60;99.90;;;;;;6264409;22;20169;-81
2021/06/08 03:33:22;;;;;;;15.10;13.53;;;13.60;99.90;;;;;;6265687;22;20562;-80
2021/06/08 03:35:51;;;;;;;16.17;14.47;;;13.60;99.90;;;;;;6266309;22;20189;-75
2021/06/08 03:38:21;;;;;;;15.03;13.33;;;13.60;99.90;;;;;;6266924;22;20244;-77
2021/06/08 03:40:47;;;;;;;12.83;11.47;;;13.60;99.90;;;;;;6267682;22;20173;-76
2021/06/08 03:43:14;;;;;;;15.13;13.53;;;13.60;99.90;;;;;;6266851;22;20177;-78
2021/06/08 03:45:41;;;;;;;14.43;11.97;;;13.60;99.90;;;;;;6265683;22;20230;-81
2021/06/08 03:48:08;;;;;;;14.70;12.47;;;13.60;99.90;;;;;;6267170;22;20209;-81
2021/06/08 03:50:35;;;;;;;14.30;12.80;;;13.60;99.90;;;;;;6267197;22;20180;-80
2021/06/08 03:53:04;;;;;;;15.17;12.90;;;13.60;99.90;;;;;;6266344;22;20180;-76
2021/06/08 03:55:30;;;;;;;12.97;11.67;;;13.60;99.90;;;;;;6266984;22;20193;-79
2021/06/08 03:57:59;;;;;;;13.43;11.93;;;13.60;99.90;;;;;;6266590;22;20172;-77
2021/06/08 04:00:26;;;;;;;14.57;12.73;;;13.60;99.90;;;;;;6266476;22;20218;-79
2021/06/08 04:02:53;;;;;;;13.40;12.00;;;13.60;99.90;;;;;;6266344;22;20179;-81
2021/06/08 04:05:20;;;;;;;14.73;13.23;;;13.60;99.90;;;;;;6266848;22;20165;-80
2021/06/08 04:07:47;;;;;;;13.57;12.27;;;13.70;99.90;;;;;;6266013;22;20624;-79
2021/06/08 04:10:19;;;;;;;14.17;12.60;;;13.70;99.90;;;;;;6266395;22;20176;-76
2021/06/08 04:12:45;;;;;;;13.83;12.43;;;13.70;99.90;;;;;;6265548;22;20956;-79
2021/06/08 04:15:13;;;;;;;15.87;14.13;;;13.80;99.90;;;;;;6266413;22;20197;-81
2021/06/08 04:17:40;;;;;;;14.07;12.60;;;13.90;99.90;;;;;;6265893;22;20172;-77
2021/06/08 04:20:09;;;;;;;14.67;12.87;;;14.00;99.90;;;;;;6266038;22;20176;-75
2021/06/08 04:22:37;;;;;;;13.97;12.57;;;14.00;99.90;;;;;;6266542;22;20196;-77
2021/06/08 04:25:06;;;;;;;12.90;11.60;;;14.00;99.90;;;;;;6265102;22;20935;-79
2021/06/08 04:27:35;;;;;;;14.10;12.60;;;14.00;99.90;;;;;;6265151;22;20183;-79
2021/06/08 04:30:04;;;;;;;12.60;11.30;;;14.10;99.90;;;;;;6266025;22;20177;-77
2021/06/08 04:32:33;;;;;;;12.90;11.60;;;14.10;99.90;;;;;;6266086;22;20168;-77
2021/06/08 04:34:59;;;;;;;12.37;11.13;;;14.10;99.90;;;;;;6265393;22;20215;-77
2021/06/08 04:37:26;;;;;;;12.97;11.57;;;14.10;99.90;;;;;;6265662;22;20831;-79
2021/06/08 04:39:52;;;;;;;14.77;13.27;;;14.10;99.90;;;;;;6265728;22;20172;-82
2021/06/08 04:42:19;;;;;;;15.00;13.40;;;14.10;99.90;;;;;;6265334;22;20172;-77
2021/06/08 04:44:49;;;;;;;15.17;13.57;;;14.10;99.90;;;;;;6265749;22;20222;-76
2021/06/08 04:47:17;;;;;;;15.33;13.33;;;14.10;99.90;;;;;;6265957;22;20172;-77
2021/06/08 04:49:43;;;;;;;14.43;13.00;;;14.20;99.90;;;;;;6266331;22;20177;-79
2021/06/08 04:52:10;;;;;;;16.37;14.67;;;14.20;99.90;;;;;;6265978;22;20165;-79
2021/06/08 04:54:37;;;;;;;18.03;15.40;;;14.30;99.90;;;;;;6265051;22;20193;-78
2021/06/08 04:57:04;;;;;;;16.63;14.80;;;14.50;99.90;;;;;;6266018;22;20176;-81
2021/06/08 04:59:34;;;;;;;17.50;15.50;;;15.00;99.90;;;;;;6265489;22;20181;-81
2021/06/08 05:02:05;;;;;;;16.50;14.80;;;15.60;99.90;;;;;;6265406;22;20580;-77
2021/06/08 05:04:36;;;;;;;18.03;15.10;;;16.30;99.90;;;;;;6265438;22;20168;-80
2021/06/08 05:07:05;;;;;;;15.90;13.27;;;16.90;99.90;;;;;;6266577;22;20654;-76
2021/06/08 05:09:37;;;;;;;12.40;11.20;;;17.60;99.90;;;;;;6265382;22;20199;-77
2021/06/08 05:12:05;;;;;;;10.55;9.45;;;18.20;99.90;;;;;;6238641;22;20212;-77
2021/06/08 05:14:33;;;;;;;10.38;9.10;;;18.80;99.90;;;;;;6235456;23;20251;-79
2021/06/08 05:17:02;;;;;;;9.50;8.50;;;19.30;99.90;;;;;;6235566;23;20172;-82
2021/06/08 05:19:29;;;;;;;8.80;7.90;;;19.80;99.90;;;;;;6235979;23;20182;-81
2021/06/08 05:21:57;;;;;;;13.10;8.30;;;20.20;99.90;;;;;;6235853;23;20180;-81
2021/06/08 05:24:24;;;;;;;8.95;6.85;;;20.60;99.90;;;;;;6234945;23;20207;-80
2021/06/08 05:26:52;;;;;;;7.90;6.85;;;20.90;99.90;;;;;;6235055;23;20733;-81
2021/06/08 05:29:19;;;;;;;9.13;7.18;;;21.30;99.90;;;;;;6234629;23;20949;-81
2021/06/08 05:31:46;;;;;;;7.50;6.78;;;21.60;99.90;;;;;;6234413;23;20632;-81
2021/06/08 05:34:14;;;;;;;7.10;6.40;;;21.90;99.90;;;;;;6234561;23;20192;-80
2021/06/08 05:36:42;;;;;;;7.80;6.95;;;22.20;99.90;;;;;;6235276;23;20180;-82
2021/06/08 05:39:10;;;;;;;8.32;7.25;;;22.40;99.90;;;;;;6235183;23;20177;-81
2021/06/08 05:41:37;;;;;;;7.88;7.13;;;22.60;99.90;;;;;;6234595;23;20166;-80
2021/06/08 05:44:04;;;;;;;7.57;6.53;;;22.80;99.90;;;;;;6234012;23;20573;-77
2021/06/08 05:46:33;;;;;;;8.35;5.93;;;22.90;99.90;;;;;;6234623;23;20230;-80
2021/06/08 05:49:00;;;;;;;7.80;6.72;;;23.20;99.90;;;;;;6233938;23;20860;-80
2021/06/08 05:51:29;;;;;;;7.75;6.60;;;23.40;99.90;;;;;;6233742;23;20166;-79
2021/06/08 05:53:56;;;;;;;10.35;7.38;;;23.60;99.90;;;;;;6234669;23;20169;-79
2021/06/08 05:56:24;;;;;;;8.02;7.22;;;23.80;99.90;;;;;;6234269;23;20188;-78
2021/06/08 05:58:53;;;;;;;11.07;7.47;;;24.00;99.90;;;;;;6233324;23;20177;-80
2021/06/08 06:01:22;;;;;;;7.55;6.82;;;24.30;99.90;;;;;;6233788;23;20212;-78
2021/06/08 06:03:50;;;;;;;6.50;6.00;;;24.10;99.90;;;;;;6233840;23;20169;-79
2021/06/08 06:06:16;;;;;;;7.05;5.65;;;24.30;99.90;;;;;;6233361;22;20199;-80
2021/06/08 06:08:44;;;;;;;7.32;5.63;;;24.50;99.90;;;;;;6234543;23;20173;-80
2021/06/08 06:11:13;;;;;;;6.88;6.28;;;24.90;99.90;;;;;;6248970;22;20204;-79
2021/06/08 06:13:47;;;;;;;6.57;5.88;;;24.90;99.90;;;;;;6264433;22;20279;-79
2021/06/08 06:16:17;;;;;;;6.88;6.20;;;25.10;99.90;;;;;;6265052;22;20193;-80
2021/06/08 06:18:44;;;;;;;8.55;7.63;;;25.10;99.90;;;;;;6263819;22;20169;-79
2021/06/08 06:21:11;;;;;;;8.52;6.97;;;25.30;99.90;;;;;;6264251;22;20592;-79
2021/06/08 06:23:37;;;;;;;11.48;7.90;;;25.40;99.90;;;;;;6264599;22;20226;-78
2021/06/08 06:26:06;;;;;;;8.63;7.22;;;25.50;99.90;;;;;;6263532;22;20172;-81
2021/06/08 06:28:33;;;;;;;8.30;7.40;;;25.60;99.90;;;;;;6263804;22;20647;-78
2021/06/08 06:30:59;;;;;;;10.43;7.05;;;25.80;99.90;;;;;;6264040;22;20176;-78
2021/06/08 06:33:26;;;;;;;8.02;7.00;;;26.00;99.90;;;;;;6263437;22;20176;-78
2021/06/08 06:35:56;;;;;;;15.45;8.85;;;26.40;99.90;;;;;;6264883;22;20199;-79
2021/06/08 06:38:23;;;;;;;10.57;9.35;;;26.30;99.90;;;;;;6263451;22;20452;-77
2021/06/08 06:40:51;;;;;;;8.90;8.00;;;26.00;99.90;;;;;;6263973;22;20488;-77
2021/06/08 06:43:24;;;;;;;8.77;7.28;;;26.30;99.90;;;;;;6263971;22;20168;-79
2021/06/08 06:45:51;;;;;;;10.82;8.13;;;26.50;99.90;;;;;;6265026;22;20172;-79
2021/06/08 06:51:50;;;;;;;9.73;8.13;;;26.40;99.90;;;;;;6239635;22;20921;-79
2021/06/08 06:54:18;;;;;;;11.65;9.00;;;26.80;99.90;;;;;;6264589;22;20157;-77
2021/06/08 06:56:45;;;;;;;12.57;10.27;;;26.60;99.90;;;;;;6265613;22;20173;-78
2021/06/08 06:59:13;;;;;;;13.45;9.27;;;26.70;99.90;;;;;;6267787;22;20601;-78
2021/06/08 07:01:41;;;;;;;13.38;10.63;;;26.70;99.90;;;;;;6271475;22;20196;-78
2021/06/08 07:04:09;;;;;;;14.35;9.40;;;26.90;99.90;;;;;;6271470;22;20584;-77
2021/06/08 07:06:37;;;;;;;15.35;9.02;;;26.50;99.90;;;;;;6272230;22;20197;-79
2021/06/08 07:09:03;;;;;;;14.43;9.77;;;26.40;99.90;;;;;;6271445;22;20701;-79
2021/06/08 07:11:30;;;;;;;14.98;9.57;;;26.70;99.90;;;;;;6287745;22;20196;-81
2021/06/08 07:13:57;;;;;;;10.50;8.07;;;26.70;99.90;;;;;;6277881;22;20176;-77
2021/06/08 07:16:26;;;;;;;9.63;8.50;;;26.60;99.90;;;;;;6265514;22;20200;-77
2021/06/08 07:18:53;;;;;;;10.20;7.43;;;26.30;99.90;;;;;;6266334;22;20176;-80
2021/06/08 07:21:21;;;;;;;9.63;7.90;;;26.70;99.90;;;;;;6266256;22;20596;-79
2021/06/08 07:23:51;;;;;;;13.85;8.50;;;27.20;99.90;;;;;;6265404;22;20227;-76
2021/06/08 07:26:18;;;;;;;13.88;9.27;;;27.30;99.90;;;;;;6265905;22;20601;-80
2021/06/08 07:28:45;;;;;;;8.82;7.00;;;27.30;99.90;;;;;;6266081;22;20176;-77
2021/06/08 07:31:23;;;;;;;8.95;6.00;;;27.60;99.90;;;;;;6265425;22;20257;-77
2021/06/08 07:34:01;;;;;;;9.73;6.47;;;27.60;99.90;;;;;;6266615;22;20172;-78
2021/06/08 07:36:34;;;;;;;10.75;7.03;;;27.60;99.90;;;;;;6265039;22;20228;-80
2021/06/08 07:39:04;;;;;;;8.20;6.18;;;27.60;99.90;;;;;;6265858;22;20169;-79
2021/06/08 07:41:36;;;;;;;8.18;5.88;;;27.20;99.90;;;;;;6265660;22;20179;-80
2021/06/08 07:44:05;;;;;;;7.60;4.93;;;27.10;99.90;;;;;;6265068;22;20161;-78
2021/06/08 07:46:36;;;;;;;5.85;4.43;;;27.40;99.90;;;;;;6265495;22;20222;-77
2021/06/08 07:49:05;;;;;;;5.38;4.60;;;27.50;99.90;;;;;;6265554;22;20176;-77
2021/06/08 07:51:33;;;;;;;7.03;4.78;;;27.70;99.90;;;;;;6264652;22;20592;-77
2021/06/08 07:54:00;;;;;;;6.82;4.15;;;28.00;99.90;;;;;;6264446;22;20211;-77
2021/06/08 07:56:28;;;;;;;8.23;5.10;;;28.30;99.90;;;;;;6265624;22;20196;-77
2021/06/08 07:58:55;;;;;;;5.95;3.97;;;28.60;99.90;;;;;;6264823;22;20177;-78
2021/06/08 08:01:21;;;;;;;4.15;3.05;;;28.80;99.90;;;;;;6265311;22;20169;-77
2021/06/08 08:03:49;;;;;;;5.00;2.92;;;29.10;99.90;;;;;;6261256;22;20177;-76
2021/06/08 08:06:19;;;;;;;6.45;3.95;;;29.40;99.90;;;;;;6264614;22;20180;-77
2021/06/08 08:08:47;;;;;;;7.15;3.83;;;29.60;99.90;;;;;;6264895;22;20187;-77
2021/06/08 08:11:16;;;;;;;4.40;3.53;;;29.20;99.90;;;;;;6263674;22;20540;-76
2021/06/08 08:13:45;;;;;;;3.13;2.30;;;29.20;99.90;;;;;;6264957;22;20179;-78
2021/06/08 08:16:13;;;;;;;3.60;2.40;;;29.20;99.90;;;;;;6265207;22;20203;-79
2021/06/08 08:18:41;;;;;;;2.35;1.80;;;29.20;99.90;;;;;;6263948;22;20176;-77
2021/06/08 08:21:09;;;;;;;4.18;2.42;;;29.70;99.90;;;;;;6263949;22;20188;-76
2021/06/08 08:23:38;;;;;;;4.03;2.67;;;29.80;99.90;;;;;;6265460;22;20177;-77
2021/06/08 08:26:06;;;;;;;3.38;1.85;;;29.80;99.90;;;;;;6264243;22;20168;-76
2021/06/08 08:28:32;;;;;;;4.75;2.03;;;29.90;99.90;;;;;;6264452;22;20175;-76
2021/06/08 08:31:00;;;;;;;1.58;1.02;;;29.90;99.90;;;;;;6264036;22;20169;-78
2021/06/08 08:33:28;;;;;;;2.70;1.77;;;29.80;99.90;;;;;;6264749;22;20212;-79
2021/06/08 08:35:55;;;;;;;4.82;2.25;;;29.80;99.90;;;;;;6265177;22;20193;-78
2021/06/08 08:38:22;;;;;;;2.42;1.52;;;29.70;99.90;;;;;;6264941;22;20173;-76
2021/06/08 08:40:50;;;;;;;4.82;1.77;;;30.00;99.90;;;;;;6263622;22;20222;-74
2021/06/08 08:43:18;;;;;;;6.07;1.80;;;30.20;99.90;;;;;;6265220;22;20188;-75
2021/06/08 08:45:44;;;;;;;3.75;1.90;;;30.40;99.90;;;;;;6264431;22;20200;-75
2021/06/08 08:48:10;;;;;;;5.40;1.90;;;30.30;99.90;;;;;;6263939;22;20218;-76
2021/06/08 08:50:36;;;;;;;5.22;1.88;;;30.00;99.90;;;;;;6265211;22;20179;-76
2021/06/08 08:53:05;;;;;;;2.08;1.50;;;30.00;99.90;;;;;;6265294;22;20532;-77
2021/06/08 08:55:33;;;;;;;5.55;1.77;;;30.00;99.90;;;;;;6263199;22;20195;-77
2021/06/08 08:58:02;;;;;;;4.88;1.50;;;29.70;99.90;;;;;;6264422;22;20177;-75
2021/06/08 09:00:30;;;;;;;4.68;1.88;;;29.50;99.90;;;;;;6264757;22;20231;-75
2021/06/08 09:02:58;;;;;;;2.80;2.08;;;29.60;99.90;;;;;;6264118;22;20782;-75
2021/06/08 09:05:26;;;;;;;2.65;1.63;;;29.10;99.90;;;;;;6264805;22;20165;-75
2021/06/08 09:07:53;;;;;;;2.65;1.50;;;29.30;99.90;;;;;;6263109;22;20189;-74
2021/06/08 09:10:21;;;;;;;3.72;1.80;;;29.50;99.90;;;;;;6264382;22;20180;-74
2021/06/08 09:12:48;;;;;;;2.38;1.35;;;29.90;99.90;;;;;;6264045;22;20200;-77
2021/06/08 09:15:16;;;;;;;1.85;1.30;;;30.30;99.90;;;;;;6263281;22;20196;-78
2021/06/08 09:17:42;;;;;;;2.88;2.05;;;30.60;99.90;;;;;;6264170;22;20702;-80
2021/06/08 09:20:12;;;;;;;3.17;1.75;;;30.70;99.90;;;;;;6263818;22;20550;-76
2021/06/08 09:22:50;;;;;;;3.22;1.77;;;30.50;99.90;;;;;;6264065;22;20226;-75
2021/06/08 09:25:39;;;;;;;3.83;2.40;;;30.50;99.90;;;;;;6264246;22;20168;-74
2021/06/08 09:28:27;;;;;;;3.53;1.80;;;30.40;99.90;;;;;;6264953;22;20169;-75
2021/06/08 09:31:04;;;;;;;2.60;1.58;;;30.00;99.90;;;;;;6262450;22;20169;-78
2021/06/08 09:33:33;;;;;;;3.40;2.03;;;29.70;99.90;;;;;;6263863;22;20277;-79
2021/06/08 09:36:01;;;;;;;3.95;2.33;;;29.60;99.90;;;;;;6262348;22;20197;-74
2021/06/08 09:38:39;;;;;;;3.08;1.88;;;29.80;99.90;;;;;;6264221;22;20238;-77
2021/06/08 09:41:18;;;;;;;5.28;2.35;;;30.10;99.90;;;;;;6262668;22;20180;-74
2021/06/08 09:43:57;;;;;;;1.63;1.23;;;30.00;99.90;;;;;;6262564;22;20161;-74
2021/06/08 09:46:28;;;;;;;2.45;1.98;;;30.40;99.90;;;;;;6259555;22;20550;-75
2021/06/08 09:48:55;;;;;;;5.10;1.63;;;30.80;99.90;;;;;;6263160;22;20189;-75
2021/06/08 09:51:22;;;;;;;4.07;2.08;;;30.80;99.90;;;;;;6262729;22;20179;-74
2021/06/08 09:53:49;;;;;;;4.35;2.28;;;30.90;99.90;;;;;;6264286;22;20168;-77
2021/06/08 09:56:15;;;;;;;3.97;2.40;;;30.80;99.90;;;;;;6264035;22;20274;-75
2021/06/08 09:58:46;;;;;;;2.47;2.00;;;30.80;99.90;;;;;;6263246;22;20177;-75
2021/06/08 10:01:15;;;;;;;1.98;1.60;;;30.60;99.90;;;;;;6264046;22;20844;-77
2021/06/08 10:03:45;;;;;;;4.82;2.20;;;30.70;99.90;;;;;;6264424;22;20176;-75
2021/06/08 10:06:13;;;;;;;3.28;1.75;;;30.80;99.90;;;;;;6263187;22;20275;-75
2021/06/08 10:08:58;;;;;;;2.47;1.75;;;30.70;99.90;;;;;;6264678;22;20852;-75
2021/06/08 10:11:27;;;;;;;3.40;1.95;;;30.60;99.90;;;;;;6262180;22;20219;-75
2021/06/08 10:13:59;;;;;;;2.42;2.20;;;30.50;99.90;;;;;;6263315;22;20268;-77
2021/06/08 10:16:29;;;;;;;2.67;1.60;;;30.20;99.90;;;;;;6264248;22;21069;-73
2021/06/08 10:18:58;;;;;;;3.42;2.17;;;30.40;99.90;;;;;;6262664;22;20168;-78
2021/06/08 10:21:48;;;;;;;2.78;1.90;;;30.60;99.90;;;;;;6263004;22;20843;-73
2021/06/08 10:24:15;;;;;;;4.53;2.08;;;30.50;99.90;;;;;;6263469;22;20176;-73
2021/06/08 10:26:47;;;;;;;3.03;1.52;;;30.20;99.90;;;;;;6263559;22;20176;-76
2021/06/08 10:29:14;;;;;;;4.03;2.45;;;30.30;99.90;;;;;;6263918;22;20175;-77
2021/06/08 10:31:42;;;;;;;6.03;2.08;;;30.00;99.90;;;;;;6264176;22;20172;-75
2021/06/08 10:34:11;;;;;;;3.42;1.85;;;30.10;99.90;;;;;;6263661;22;20177;-78
2021/06/08 10:36:39;;;;;;;2.97;2.58;;;30.30;99.90;;;;;;6264001;22;20196;-78
2021/06/08 10:39:07;;;;;;;2.75;2.05;;;30.30;99.90;;;;;;6263466;22;20172;-80
2021/06/08 10:41:35;;;;;;;3.20;1.98;;;30.00;99.90;;;;;;6263785;22;20383;-78
2021/06/08 10:44:04;;;;;;;3.22;2.20;;;30.10;99.90;;;;;;6263705;22;20484;-75
2021/06/08 10:46:35;;;;;;;3.78;2.53;;;30.10;99.90;;;;;;6263090;22;20554;-74
2021/06/08 10:49:04;;;;;;;3.20;2.90;;;30.10;99.90;;;;;;6263630;22;20169;-75
2021/06/08 10:51:34;;;;;;;4.00;3.03;;;29.80;99.90;;;;;;6263542;22;20173;-74
2021/06/08 10:54:02;;;;;;;7.00;3.25;;;29.60;99.90;;;;;;6263173;22;20172;-74
2021/06/08 10:56:29;;;;;;;4.88;3.40;;;29.50;99.90;;;;;;6263871;22;20200;-73
2021/06/08 10:58:57;;;;;;;4.25;3.70;;;29.40;99.90;;;;;;6262836;22;20180;-77
2021/06/08 11:01:51;;;;;;;3.75;3.00;;;29.30;99.90;;;;;;6262990;22;20183;-74
2021/06/08 11:04:24;;;;;;;5.65;3.25;;;29.10;99.90;;;;;;6263605;22;20157;-75
2021/06/08 11:06:56;;;;;;;4.55;2.72;;;29.20;99.90;;;;;;6264259;22;20192;-75
2021/06/08 11:09:33;;;;;;;3.75;3.25;;;29.30;99.90;;;;;;6260597;22;20256;-74
2021/06/08 11:12:05;;;;;;;3.80;2.72;;;29.30;99.90;;;;;;6263122;22;20208;-75
2021/06/08 11:14:54;;;;;;;4.63;3.17;;;29.30;99.90;;;;;;6262954;22;20157;-74
2021/06/08 11:17:33;;;;;;;6.70;3.70;;;29.00;99.90;;;;;;6264059;22;20183;-78
2021/06/08 11:20:02;;;;;;;6.65;3.42;;;28.90;99.90;;;;;;6263327;22;20172;-76
2021/06/08 11:23:01;;;;;;;4.35;3.58;;;28.80;99.90;;;;;;6260738;22;20169;-74
2021/06/08 11:25:53;;;;;;;5.97;2.92;;;28.70;99.90;;;;;;6170216;23;20159;-79
2021/06/08 11:28:19;;;;;;;4.55;3.33;;;28.70;99.90;;;;;;6258999;22;20181;-78
2021/06/08 11:30:56;;;;;;;6.38;3.10;;;28.90;99.90;;;;;;6264687;22;20179;-79
2021/06/08 11:33:34;;;;;;;4.22;2.40;;;29.20;99.90;;;;;;6265538;22;20165;-79
2021/06/08 11:36:01;;;;;;;5.32;2.80;;;29.40;99.90;;;;;;6264241;22;20573;-80
2021/06/08 11:38:34;;;;;;;4.00;3.22;;;29.30;99.90;;;;;;6268470;22;20173;-77
2021/06/08 11:41:08;;;;;;;4.13;3.25;;;29.30;99.90;;;;;;6270145;22;20161;-79
2021/06/08 11:43:57;;;;;;;4.88;3.42;;;29.20;99.90;;;;;;6267795;22;20564;-75
2021/06/08 11:46:46;;;;;;;7.80;4.45;;;29.00;99.90;;;;;;6269507;22;20469;-76
2021/06/08 11:49:15;;;;;;;4.40;3.78;;;28.80;99.90;;;;;;6253739;22;20230;-79
2021/06/08 11:51:47;;;;;;;5.82;4.13;;;28.70;99.90;;;;;;6271186;22;20203;-79
2021/06/08 11:54:21;;;;;;;5.10;4.20;;;28.80;99.90;;;;;;6272046;22;20271;-78
2021/06/08 11:56:56;;;;;;;4.85;3.83;;;28.80;99.90;;;;;;6280128;22;20196;-79
2021/06/08 11:59:28;;;;;;;6.05;5.00;;;28.70;99.90;;;;;;6270700;22;20777;-79
2021/06/08 12:01:57;;;;;;;5.90;4.90;;;28.50;99.90;;;;;;6270487;22;20188;-73
2021/06/08 12:04:25;;;;;;;7.47;4.82;;;28.10;99.90;;;;;;6267208;22;20177;-73
2021/06/08 12:07:06;;;;;;;5.97;4.78;;;28.00;99.90;;;;;;6267565;22;20189;-77
2021/06/08 12:09:35;;;;;;;7.30;5.15;;;27.90;99.90;;;;;;6266357;22;20168;-75
2021/06/08 12:12:09;;;;;;;8.05;5.47;;;27.90;99.90;;;;;;6265228;22;20211;-77
2021/06/08 12:14:36;;;;;;;6.30;5.50;;;27.80;99.90;;;;;;6266238;22;20200;-77
2021/06/08 12:17:04;;;;;;;6.55;5.65;;;27.80;99.90;;;;;;6264481;22;20168;-80
2021/06/08 12:19:32;;;;;;;7.53;6.75;;;27.80;99.90;;;;;;6264552;22;20236;-80
2021/06/08 12:22:01;;;;;;;5.95;5.32;;;27.90;99.90;;;;;;6265622;22;20195;-79
2021/06/08 12:24:28;;;;;;;5.55;5.00;;;27.90;99.90;;;;;;6265076;22;20177;-78
2021/06/08 12:26:58;;;;;;;7.15;4.32;;;28.10;99.90;;;;;;6264916;22;20169;-79
2021/06/08 12:29:25;;;;;;;3.95;3.35;;;27.90;99.90;;;;;;6265062;22;20161;-79
2021/06/08 12:31:54;;;;;;;5.63;4.90;;;27.90;99.90;;;;;;6264070;22;20176;-74
2021/06/08 12:34:23;;;;;;;6.20;5.03;;;27.80;99.90;;;;;;6264608;22;20441;-75
2021/06/08 12:36:51;;;;;;;5.28;4.50;;;27.70;99.90;;;;;;6264981;22;20203;-78
2021/06/08 12:39:20;;;;;;;4.63;4.15;;;27.60;99.90;;;;;;6264075;22;20237;-75
2021/06/08 12:41:46;;;;;;;4.95;3.88;;;27.60;99.90;;;;;;6264754;22;20177;-79
2021/06/08 12:44:25;;;;;;;4.63;4.22;;;27.80;99.90;;;;;;6265485;22;20184;-78
2021/06/08 12:46:52;;;;;;;5.32;4.82;;;27.80;99.90;;;;;;6264176;22;20549;-78
2021/06/08 12:49:19;;;;;;;5.65;4.45;;;27.60;99.90;;;;;;6264618;22;20165;-78
2021/06/08 12:51:51;;;;;;;6.10;3.80;;;27.60;99.90;;;;;;6265088;22;20285;-77
2021/06/08 12:54:30;;;;;;;5.50;4.43;;;27.60;99.90;;;;;;6264144;22;20171;-76
2021/06/08 12:56:56;;;;;;;5.72;4.15;;;27.60;99.90;;;;;;6264274;22;20262;-77
2021/06/08 12:59:26;;;;;;;5.47;3.83;;;27.40;99.90;;;;;;6264778;22;20441;-76
2021/06/08 13:01:53;;;;;;;4.70;4.20;;;27.50;99.90;;;;;;6264074;22;20169;-74
2021/06/08 13:04:20;;;;;;;5.47;3.90;;;27.50;99.90;;;;;;6265020;22;20181;-78
2021/06/08 13:06:48;;;;;;;4.72;4.00;;;27.50;99.90;;;;;;6264580;22;20235;-76